Change Date:Time:

Metar of : 7/21/2018 0900UTC
Metar
OPKLT 210900z 27004kt CAVOK 7941 32/00 Rh 13%
OPMIT 210900Z 22514KT 6000 SCT035 FEW110 35/23 Q0997 RH49%
IS1:TAF OPIS 210900Z 2112/2121 18010KT 6000 SCT040 BKN100 TEMPO 2115/2119 09010KT 4000 TSRA FEW030CB SCT050 BKN080
IS2:TAF OPIS 210900Z 2112/2218 13010KT 6000 SCT040 BKN100 TEMPO 2115/2119 09010KT 4000 TSRA FEW030CB SCT050 BKN080 TEMPO 2209/2215 11010KT 5000 TSRA FEW040CB SCT050 BKN100
OPAS 36004KT 9999 SCT040 29/11 33%
OPBDN 210900Z 52308KT 8000 bkn 030 34/24 Q9984 RH 56%
OPBJ 18004KT 9000 FEW030 SCT040 BKN120 36/18 36%
OPBK 00000KT 9999 BKN030 33/24 60%
OPBKN 210900Z 18002KT 9999 SCT100 34/21 RH47%
OPBKR 13502KT 9999 FEW100 39/27 50%
OPBL 210900Z 13002KT 8000 NSC 36/25 RH 53 %
OPBN 13010 KT 9999 SCT040 FEW100 33/24 59%
OPBR 09002KT 9999 SCT040 39/25 48%
OPBW 31002KT 4000 HZ FEW040 39/25 Q0996 46%
OPBW( CITY) 23004KT 4000 FU FEW040 39/28 55%
OPCH 00000KT 9999 FEW 040 SCT 100 35/19 Q1002 37%
OPCK 23002KT 9999 FEW 040 32/25 64%
OPCL 31002KT 9999 SCT040 FEW120 33/18 RH41%
OPDBN 210900Z 23008KT CAVOK 44/06 Q1000 RH10%
OPDG 05004KT 6000 SCT100 40/26 Q0996 47%
OPDH 22508KT 9999 SCT 040 37/17 32%
OPDIK 09002KT 9999 FEW040 39/26 Q0997 50%
OPDIR 23002KT 9999 SCT035 32/20 50%
OPDU 210900Z 05004KT 6000 HZ NSC 44/25 RH 34%
OPFA 09004KT 5000 FU FEW040 36/26 Q0997 NOSIG RH58%
OPGD 210900Z 18012KT 4000 HZ NSC 35/26 Q0998 RH60%
OPGP 00000KT 9999 SCT040 SCT100 36/23 47%
OPGPS 23002KT 9000 SCT045 33/13 RH28%
OPGT 04502KT 9000 SCT040 SCT100 34/19 Q1004 42%
OPGW 13002KT 9999 BKN110 36/27 63%
OPHQ 00000KT 5000 FEW040 FEW100 34/25 Q0996 RH60%
OPHZ 00000KT 0900Z 9999 FEW040 SCT100 35/12 25%
OPIS 15004KT 6000 FEW040 SCT100 33/25 Q0999 RH64%
OPJD 210900Z 04502KT 6000 HZ FEW200 39/27 Q995 RH50%
OPJG 13002KT CAVOK 38/27 Q0995 56%
OPJI 210900Z 13008KT 5000 HZ SKC 32/27 Q0998 RH73%
OPJM 23004KT 2500 FU SCT030 37/27 56%
OPKAD 31002KT 8000 NSC 40/27 49%
OPKC 210900Z 23012KT 5000 FU FEW020 34/23 Q0998 RH56%
OPKD 210900Z 23012KT 6000 SCT035 FEW100 36/24 Q0996 RH50% NO SIG
OPKE 210900Z 23006KT 6000 SCT020 SCT100 37/25 Q0996 RH49%
OPKK 13002KT 9999 FEW035 SCT100 28/19 59%
OPKL 23004KT 9999 SCT040 36/25 54%
OPKLM 13004KT 9999 SCT 040 SCT 100 26/15 52%
OPKP 23006KT 6000 NSC 39/26 48%
OPKRL 18002KT 5000 HZ SCT040 39/25 46%
OPKS 23002KT 6000 SCT100 36/26 58%
OPLA 12003KT 4000 FU SCT040 SCT100 35/28 Q0997 A29.46 TEMPO 33015G35KT 1500 TSRA FEW030CB RH65%
OPLA( CITY) 00000KT 4000 FU FEW035 SCT040 34/26 Q0996 62%
OPLRK 210900Z 13006KT 6000 NSC 40/24 Q996 RH42%
OPMA 00000KT 5000 TS FEW030CB SCT040 SCT100 38/24 Q0999 45%
OPMB 36002KT 6000 BKN110 36/28 Q0996 66%
OPME 36002KT 0050 RA OVC000 ST 21/20 91% HOURLY RAINFAL 4.0 MM
OPMF 13002KT 9999 SCT033 35/24 53%
OPMJ 210900Z 13006KT 6000 SCT100 41/24 Q0996 RH39% NO SIG
OPMJB 00000KT 9999 SCT 040 FEW 100 22/18 80%
OPMPK 210900Z 22506KT V7000 SCT 30 SCT100 34/25 Q997 RH 57%
OPMT 23006KT 5000 HZ FEW040 39/25 Q0996 NOSIG RH45%
OPNH 210900Z 13508KT 6000 FEW030 SCT100 39/25 Q0995 RH44% NOSIG
OPNK 210900Z 31506KT 4000 Du 45/03 Q0988 RH 08%
OPNPT 00000KT 7000 FEW040 SCT100 41/25 41%
OPOK 00000KT 6000 NSC 37/28 Q0996 61%
OPPDN 210900Z 13002KT 5000 Few200 39/27 Q993
OPPG 210900Z 23006KT 7000 SKC 38/18 Q1005 RH32%
OPPI 210900z 09005KT 4000 fu few100 34/27 Q997 RH70%
OPPSH (41529) 00000KT 8000 SCT200 36/27 RH 61%
OPQT 27012KT 7000 HZ SCT050 36/12 Q1008 RH 24%
OPRK 27004KT 6000 NSC 41/25 Q0996 40%
OPRN 23004KT 4000 HZ SCT040 SCT100 35/26 Q1000 TEMPO 3000 TS FEW030CB RMK A2953 RH58%
OPRRI 210900Z 13502KT 8000 NSC 41/25 P1P1 9872
OPRT 23004KT 9999 FEW 040 BKN 100 26/13 Q1013 85%
OPSD 00000KT 9999 SCT035 33/10 Q1010 24% AP/ P-CLOUDY
OPSG 00000KT 6000 SCT100 33/28 73%
OPSK 210900Z 13008KT 5000 HZ NSC 41/26 Q0994 RH 43% NOSIG
OPSKD 210900Z 18002KT 6000 SCT 200 41/21 RH 33%
OPSKT 00000KT 6000 SCT040 SCT110 36/2760%
OPSS 00000KT 9000 FEW040 BKN100 31/24 67%
OPST 23004KT 4000 FU FEW040 SCT100 35/26 Q0998 NOSIG RH60%
OPSW 00000KT 4000 FU NSC 38/27 Q0995 54%
OPTJM 210900Z 23012Kt 6000 BKN 40 100 34/26 Q1001 RH 60%
OPTMG 18002KT 9999 SCT 030 FEW100 37/23 45%
OPTS 00000KT 6000 NSC 37/29 64%
OPTU 210900Z 18010KT 6000 SKC 42/23 Q995 RH36%
OPUG 00000KT 5000 FU SCT100 38/27 56%
QT1.TAF OPQT 210900Z 2112/2121 23015G25KT 5000 HZ/VCTS FEW030TCU SCT050 SCT100
QT2.TAF OPQT 210930Z 2112/2218 23015G25KT 5000 HZ/VCTS FEW030TCU SCT050 SCT100 TEMPO 2206/2216 31015G25KT 7000 SCT050 SCT100
RN1. TAF OPRN 210900Z 2112/2124 13010KT 7000 SCT040 SCT100 TEMPO 2121/2124 VCTS FEW030TCU SCT040 BKN100
RN2. ROBEX TAF OPRN 210930Z 2112/2218 12010KT 5000 HZ SCT040 BKN100 TEMPO 2121/2203 TSRA FEW030CB SCT040 BKN090 TEMPO 2210/2215 15015G25KT TS FEW025CB SCT035 SCT100
CodeW.DirSpeedVisibilityCloud ConditionTempPressureHumidityStation
OPAS36004KT9999mPartly Cloudy29oC33%ASTORE
OPBR09002KT9999mPartly Cloudy39oC48%Bahawalnagar
OPBW31002KT4000mPartly Cloudy39oC996hp46%Bahawalpur City
OPBK00000KT9999mCloudy33oC60%Balakot
OPBKR13502KT9999mPartly Cloudy39oC50%Bhakkar
OPBJ18004KT9000mPartly Cloudy36oC36%BUNJI
OPRN23004KT4000mPartly Cloudy35oC1000hp58%CHAKLALA- RAWALPINDI
OPCK23002KT9999mPartly Cloudy32oC64%Chakwal
OPKE23006KT6000mPartly Cloudy37oC996hp49%Chhor
OPCL31002KT9999mPartly Cloudy33oC41%Chilas
OPCH00000KT9999mPartly Cloudy35oC1002hp37%Chitral
OPDG05004KT6000mPartly Cloudy40oC996hp47%D-G-KHAN
OPFA09004KT5000mPartly Cloudy36oC997hp58%Faisalabad Airport
OPGP00000KT9999mPartly Cloudy36oC47%GARHI DOPATTA
OPGD18012KT4000mHaze35oC998hp60%Gawadar
OPGT04502KT9000mPartly Cloudy34oC1004hp42%Gilgit Airport
OPGW13002KT9999mCloudy36oC63%Gujranwala
OPUG00000KT5000mPartly Cloudy38oC56%Gujrat
OPHZ00000KT9999mPartly Cloudy35oC25%Hunza
OPKD23012KT6000mPartly Cloudy36oC996hp50%Hyderabad
OPIS15004KT6000mPartly Cloudy33oC999hp64%Islamabad Airport
OPHQ00000KT5000mPartly Cloudy34oC996hp60%Islamabad City
OPJG13002KTClear38oC995hp56%Jhang
OPJM23004KT2500mPartly Cloudy37oC56%Jhelum
OPJI13008KT5000mHaze32oC998hp73%Jiwani
OPKK13002KT9999mPartly Cloudy28oC59%Kakul
OPKC23012KT5000mPartly Cloudy34oC998hp56%Karachi Airport
OPKRL18002KT5000mPartly Cloudy39oC46%KAROR (LAYYAH)
OPKS23002KT6000mPartly Cloudy36oC58%Kasur
OPKP23006KT6000mClear39oC48%Khanpur
OPKAD31002KT8000mClear40oC49%KOT ADDU
OPKL23004KT9999mPartly Cloudy36oC54%Kotli
OPLA12003KT4000mPartly Cloudy35oC997hp65%Lahore Airport
OPTMG18002KT9999mPartly Cloudy37oC45%Lower Dir
OPMJB00000KT9999mPartly Cloudy22oC80%MALAM JABBA
OPMB36002KT6000mCloudy36oC996hp66%MANDI BAHUDDIN
OPMA00000KT5000mPartly Cloudy38oC45%Mangla
OPMJ13006KT6000mPartly Cloudy41oC996hp39%MOHENJO DARO
OPMT23006KT5000mPartly Cloudy39oC996hp45%Multan
OPME36002KT0050mCloudy21oC91%Murree
OPMF13002KT9999mPartly Cloudy35oC53%MUZAFFARABAD
OPNPT00000KT7000mPartly Cloudy41oC41%NOOR PUR THAL
OPOK00000KT6000mClear37oC996hp61%Okara
OPPG23006KT7000mClear38oC1005hp32%Panjgur
OPPI09005KT4000mPartly Cloudy34oC997hp70%Pasni
OPQT27012KT7000mPartly Cloudy36oC1008hp24%Quetta
OPRT23004KT9999mPartly Cloudy26oC1013hp85%Rawalakot
OPRK27004KT6000mClear41oC996hp40%R-Y-KHAN
OPSW00000KT4000mHaze38oC995hp54%Sahiwal
OPSS00000KT9000mPartly Cloudy31oC67%SAIDU SHARIF
OPNH13508KT6000mPartly Cloudy39oC995hpShaheed Benazirabad
OPST23004KT4000mPartly Cloudy35oC998hp60%Sialkot Airport
OPSD00000KT9999mPartly Cloudy33oC1010hp24%Skardu
OPSK13008KT5000mHaze41oC994hpSukkur
OPTS00000KT6000mClear37oC64%T.T. SINGH
OPTU18010KT6000mClear42oC995hp36%Turbat